• Join FlightAware (Why Join?)
  • Login
  • US Flag 
07:59PM EDT


 

Airport Tracker/Info


-or-


 

Live Flight TrackerFlight Track Log ✈ AWE997 ✈ 22-Apr-2013 ✈ KORD - KPHL

Flight Track Log - Related Links

Times and Time Zones

All times are in EDT time to prevent confusion due to time zone crossing. See the AWE997 flight status page for this flight to view local times or setup timezone preferences in your user account.

Time Position Orientation Groundspeed Altitude Reporting Facility
EDT Latitude Longitude Course Direction KTS MPH feet Rate Location/Type
10:53AM 41.9333 -87.9000 90° East 171 197 2,400  Level Chicago TRACON
10:54AM 41.9000 -87.8333 124° Southeast 233 268 4,300 1,260 Climbing Chicago TRACON
10:55AM 41.9546 -87.4168 97° East  Level FlightAware Approximate
10:56AM 41.9422 -87.2564 95° East  Level FlightAware Approximate
10:56AM 41.8958 -87.6278 91° East 268 308 6,300  Level Chicago Center
10:57AM 41.9333 -87.0956 90° East  Level FlightAware Approximate
10:57AM 41.9042 -87.5244 84° East 277 319 9,300  Level Chicago Center
10:58AM 41.9333 -86.9343 90° East  Level FlightAware Approximate
10:58AM 41.9150 -87.4169 82° East 286 329 11,800  Level Chicago Center
10:59AM 41.9256 -87.3003 83° East 309 356 13,500 1,500 Climbing Chicago Center
11:00AM 41.9378 -87.1650 83° East 360 414 14,900 1,980 Climbing Chicago Center
11:01AM 41.9469 -86.9950 86° East 377 434 17,700 2,040 Climbing Chicago Center
11:02AM 41.9475 -86.8494 90° East 388 447 19,200 1,500 Climbing Chicago Center
11:03AM 41.9511 -86.7003 88° East 398 458 20,800 1,560 Climbing Chicago Center
11:04AM 41.9528 -86.5328 89° East 416 479 22,500 1,500 Climbing Chicago Center
11:05AM 41.9544 -86.3744 89° East 424 488 23,900 1,260 Climbing Chicago Center
11:06AM 41.9542 -86.2106 90° East 435 501 25,200 1,200 Climbing Chicago Center
11:07AM 41.9397 -86.0442 97° East 446 513 26,400 1,080 Climbing Chicago Center
11:08AM 41.9244 -85.8764 97° East 453 521 27,500 1,020 Climbing Chicago Center
11:09AM 41.9078 -85.7058 97° East 458 527 28,600 960 Climbing Chicago Center
11:10AM 41.8914 -85.5311 97° East 466 536 29,600 1,020 Climbing Chicago Center
11:11AM 41.8733 -85.3542 98° East 471 542 30,800 1,020 Climbing Chicago Center
11:12AM 41.8567 -85.1789 97° East 468 539 31,800 1,080 Climbing Chicago Center
11:13AM 41.8517 -85.1108 96° East 470 541 32,300 1,140 Climbing Cleveland Center
11:14AM 41.8319 -84.9256 98° East 449 517 33,300 900 Climbing Cleveland Center
11:15AM 41.8153 -84.7517 97° East 454 522 34,100 660 Climbing Cleveland Center
11:16AM 41.7964 -84.5831 98° East 454 522 34,700 720 Climbing Cleveland Center
11:17AM 41.7794 -84.4067 97° East 465 535 35,600 780 Climbing Cleveland Center
11:18AM 41.7744 -84.2392 92° East 465 535 36,300 660 Climbing Cleveland Center
11:19AM 41.7422 -84.0731 105° East 465 535 37,000 300 Climbing Cleveland Center
11:20AM 41.7072 -83.9097 106° East 465 535 37,000  Level Cleveland Center
11:21AM 41.6703 -83.7439 107° East 460 529 37,000  Level Cleveland Center
11:22AM 41.6350 -83.5811 106° East 465 535 37,000  Level Cleveland Center
11:23AM 41.5978 -83.4153 107° East 460 529 37,000  Level Cleveland Center
11:24AM 41.5619 -83.2556 107° East 460 529 37,000  Level Cleveland Center
11:25AM 41.5239 -83.0931 107° East 460 529 37,000  Level Cleveland Center
11:26AM 41.4878 -82.9283 106° East 460 529 37,000  Level Cleveland Center
11:27AM 41.4492 -82.7661 108° East 460 529 37,000  Level Cleveland Center
11:28AM 41.4164 -82.6211 107° East 460 529 37,000  Level Cleveland Center
11:29AM 41.3775 -82.4567 107° East 465 535 37,000  Level Cleveland Center
11:30AM 41.3386 -82.2922 107° East 465 535 37,000  Level Cleveland Center
11:31AM 41.2992 -82.1225 107° East 465 535 37,000  Level Cleveland Center
11:32AM 41.2617 -81.9586 107° East 465 535 37,000  Level Cleveland Center
11:33AM 41.2219 -81.7922 108° East 465 535 37,000  Level Cleveland Center
11:34AM 41.1817 -81.6286 108° East 465 535 37,000  Level Cleveland Center
11:35AM 41.1414 -81.4625 108° East 465 535 37,000  Level Cleveland Center
11:36AM 41.0989 -81.2994 109° East 466 536 37,000  Level Cleveland Center
11:37AM 41.0561 -81.1339 109° East 466 536 37,000  Level Cleveland Center
11:38AM 41.0192 -80.9656 106° East 466 536 37,000  Level Cleveland Center
11:39AM 40.9758 -80.8031 109° East 466 536 37,000  Level Cleveland Center
11:40AM 40.9364 -80.6381 108° East 466 536 37,000  Level Cleveland Center
11:41AM 40.8925 -80.4733 109° East 472 543 37,000  Level Cleveland Center
11:42AM 40.8464 -80.2978 109° East 466 536 37,000  Level Cleveland Center
11:43AM 40.7958 -80.1389 113° Southeast 466 536 37,000  Level Cleveland Center
11:44AM 40.7472 -79.9967 114° Southeast 471 542 37,000  Level Cleveland Center
11:45AM 40.6922 -79.8411 115° Southeast 471 542 37,000  Level Cleveland Center
11:46AM 40.6306 -79.6747 116° Southeast 464 534 37,000  Level Cleveland Center
11:47AM 40.5750 -79.5197 115° Southeast 464 534 37,000  Level Cleveland Center
11:48AM 40.5172 -79.3678 117° Southeast 464 534 37,000  Level Cleveland Center
11:49AM 40.4675 -79.2103 112° Southeast 464 534 37,000  Level Cleveland Center
11:50AM 40.4508 -79.0497 98° East 470 541 37,000  Level Cleveland Center
11:51AM 40.4275 -78.8783 100° East 475 547 37,000 -420 Level Cleveland Center
11:52AM 40.4061 -78.7044 99° East 475 547 36,200 -2,160 Descending Cleveland Center
11:54AM 40.3539 -78.2861 99° East 468 539 29,600 -2,580 Descending New York Center
11:55AM 40.3325 -78.1286 100° East 468 539 27,300 -2,220 Descending New York Center
11:56AM 40.3131 -77.9686 99° East 458 527 25,200 -1,200 Descending New York Center
11:57AM 40.3100 -77.8103 91° East 443 510 25,000 -180 Descending New York Center
11:58AM 40.3081 -77.6331 91° East 444 511 24,900 -900 Descending New York Center
11:59AM 40.3086 -77.4781 90° East 444 511 23,200 -1,920 Descending New York Center
12:00PM 40.3058 -77.3417 91° East 410 472 21,200 -2,100 Descending New York Center
12:01PM 40.3025 -77.2133 92° East 374 430 19,000 -1,620 Descending New York Center
12:02PM 40.3011 -77.0825 91° East 357 411 18,000 -540 Descending New York Center
12:03PM 40.2764 -76.9578 105° East 345 397 18,000 -120 Level New York Center
12:04PM 40.2475 -76.8356 107° East 351 404 17,800 -360 Descending New York Center
12:05PM 40.2217 -76.7272 107° East 351 404 17,400 -660 Descending New York Center
12:06PM 40.2194 -76.6019 91° East 341 392 16,500 -1,020 Descending New York Center
12:07PM 40.2611 -76.4747 67° East 336 387 15,400 -1,020 Descending New York Center
12:08PM 40.2542 -76.3600 94° East 317 365 14,500 -1,020 Descending New York Center
12:09PM 40.2256 -76.2597 110° East 317 365 13,400 -1,080 Descending New York Center
12:10PM 40.1950 -76.1517 110° East 306 352 12,500 -960 Descending FAA TRACON SMA TRACON (SMA)
12:10PM 40.1872 -76.1222 109° East 302 348 12,200 -1,080 Descending FAA TRACON SMA TRACON (SMA)
12:11PM 40.1756 -76.0819 111° Southeast 297 342 11,800 -1,080 Descending FAA TRACON SMA TRACON (SMA)
12:11PM 40.1667 -76.0506 110° East 298 343 11,500 -1,080 Descending FAA TRACON SMA TRACON (SMA)
12:11PM 40.1583 -76.0189 109° East 299 344 11,100 -1,080 Descending FAA TRACON SMA TRACON (SMA)
12:12PM 40.1486 -75.9789 108° East 297 342 10,800 -1,080 Descending FAA TRACON SMA TRACON (SMA)
12:12PM 40.1383 -75.9489 114° Southeast 297 342 10,400 -900 Descending FAA TRACON SMA TRACON (SMA)
12:12PM 40.1300 -75.9208 111° Southeast 294 338 10,200 -780 Descending FAA TRACON SMA TRACON (SMA)
12:13PM 40.1211 -75.8817 107° East 291 335 9,900 -1,080 Descending FAA TRACON SMA TRACON (SMA)
12:13PM 40.1108 -75.8500 113° Southeast 289 333 9,500 -1,200 Descending FAA TRACON SMA TRACON (SMA)
12:13PM 40.1022 -75.8206 111° Southeast 285 328 9,100 -1,500 Descending FAA TRACON SMA TRACON (SMA)
12:14PM 40.0925 -75.7853 110° East 281 323 8,500 -1,500 Descending FAA TRACON SMA TRACON (SMA)
12:14PM 40.0842 -75.7547 110° East 275 316 8,100 -1,020 Descending FAA TRACON SMA TRACON (SMA)
12:14PM 40.0811 -75.7181 96° East 274 315 7,800 -720 Descending FAA TRACON SMA TRACON (SMA)
12:15PM 40.0808 -75.6892 91° East 268 308 7,600 -660 Descending FAA TRACON SMA TRACON (SMA)
12:15PM 40.0781 -75.6581 97° East 269 310 7,400 -540 Descending FAA TRACON SMA TRACON (SMA)
12:15PM 40.0778 -75.6286 91° East 268 308 7,300 -600 Descending FAA TRACON SMA TRACON (SMA)
12:16PM 40.0756 -75.5931 95° East 266 306 7,000 -600 Descending FAA TRACON SMA TRACON (SMA)
12:16PM 40.0733 -75.5608 95° East 266 306 6,900 -480 Descending FAA TRACON SMA TRACON (SMA)
12:16PM 40.0719 -75.5322 94° East 264 304 6,700 -600 Descending FAA TRACON SMA TRACON (SMA)
12:17PM 40.0703 -75.5036 94° East 259 298 6,500 -600 Descending FAA TRACON SMA TRACON (SMA)
12:17PM 40.0608 -75.4717 111° Southeast 255 293 6,300 -600 Descending FAA TRACON SMA TRACON (SMA)
12:17PM 40.0419 -75.4578 151° Southeast 258 297 6,100 -480 Descending FAA TRACON SMA TRACON (SMA)
12:18PM 40.0178 -75.4583 181° South 261 300 6,000 -180 Descending FAA TRACON SMA TRACON (SMA)
12:18PM 39.9964 -75.4761 212° Southwest 271 312 6,000  Level FAA TRACON SMA TRACON (SMA)
12:18PM 39.9794 -75.4958 222° Southwest 263 303 6,000  Level FAA TRACON SMA TRACON (SMA)
12:19PM 39.9644 -75.5142 223° Southwest 241 277 6,000  Level FAA TRACON SMA TRACON (SMA)
12:19PM 39.9467 -75.5364 224° Southwest 231 266 6,000  Level FAA TRACON SMA TRACON (SMA)
12:19PM 39.9331 -75.5517 221° Southwest 204 235 6,000 -300 Level FAA TRACON SMA TRACON (SMA)
12:20PM 39.9206 -75.5653 220° Southwest 190 219 5,800 -1,200 Descending FAA TRACON SMA TRACON (SMA)
12:20PM 39.9014 -75.5658 181° South 190 219 5,200 -1,800 Descending FAA TRACON SMA TRACON (SMA)
12:20PM 39.8861 -75.5633 173° South 182 209 4,600 -1,380 Descending FAA TRACON SMA TRACON (SMA)
12:21PM 39.8689 -75.5603 172° South 185 213 4,300 -1,080 Descending FAA TRACON SMA TRACON (SMA)
12:21PM 39.8514 -75.5517 159° South 185 213 3,900 -1,200 Descending FAA TRACON SMA TRACON (SMA)
12:21PM 39.8417 -75.5375 132° Southeast 177 204 3,500 -900 Descending FAA TRACON SMA TRACON (SMA)
12:22PM 39.8367 -75.5200 110° East 168 193 3,300 -780 Descending FAA TRACON SMA TRACON (SMA)
12:22PM 39.8308 -75.4981 109° East 167 192 3,000 -480 Descending FAA TRACON SMA TRACON (SMA)
12:22PM 39.8264 -75.4808 109° East 169 194 3,000 -180 Level FAA TRACON SMA TRACON (SMA)
12:23PM 39.8242 -75.4606 98° East 189 217 2,900 -300 Descending FAA TRACON SMA TRACON (SMA)